createdAt,value
2017-11-16T00:01:45.618Z,0.20
2017-11-16T00:04:11.997Z,0.30
2017-11-16T00:06:38.405Z,0.30
2017-11-16T00:09:04.775Z,0.40
2017-11-16T00:11:31.140Z,0.30
2017-11-16T00:13:57.508Z,0.40
2017-11-16T00:18:55.996Z,0.40
2017-11-16T00:21:22.344Z,0.30
2017-11-16T00:26:21.564Z,0.40
2017-11-16T00:28:47.961Z,0.40
2017-11-16T00:31:14.308Z,0.40
2017-11-16T00:33:40.687Z,0.40
2017-11-16T00:36:07.807Z,0.50
2017-11-16T00:38:34.208Z,0.50
2017-11-16T00:41:00.579Z,0.50
2017-11-16T00:43:27.954Z,0.50
2017-11-16T00:45:54.321Z,0.50
2017-11-16T00:48:20.715Z,0.40
2017-11-16T00:50:47.099Z,0.40
2017-11-16T00:53:15.297Z,0.40
2017-11-16T00:55:41.687Z,0.50
2017-11-16T00:58:08.461Z,0.60
2017-11-16T01:00:34.824Z,0.60
2017-11-16T01:03:01.194Z,0.50
2017-11-16T01:05:28.582Z,0.40
2017-11-16T01:07:54.949Z,0.30
2017-11-16T01:10:21.452Z,0.40
2017-11-16T01:12:47.826Z,0.50
2017-11-16T01:15:14.212Z,0.50
2017-11-16T01:17:40.606Z,0.60
2017-11-16T01:20:06.981Z,0.50
2017-11-16T01:22:33.341Z,0.50
2017-11-16T01:24:59.708Z,0.50
2017-11-16T01:27:26.816Z,0.50
2017-11-16T01:29:54.184Z,0.50
2017-11-16T01:32:20.539Z,0.60
2017-11-16T01:34:47.653Z,0.60
2017-11-16T01:37:14.020Z,0.50
2017-11-16T01:39:41.639Z,0.60
2017-11-16T01:42:08.024Z,0.60
2017-11-16T01:44:35.163Z,0.50
2017-11-16T01:47:02.387Z,0.60
2017-11-16T01:49:28.756Z,0.60
2017-11-16T01:51:55.862Z,0.60
2017-11-16T01:54:22.240Z,0.50
2017-11-16T01:56:49.367Z,0.50
2017-11-16T01:59:16.419Z,0.50
2017-11-16T02:01:42.816Z,0.60
2017-11-16T02:04:09.477Z,0.60
2017-11-16T02:06:35.864Z,0.70
2017-11-16T02:09:02.292Z,0.70
2017-11-16T02:11:28.684Z,0.80
2017-11-16T02:13:55.091Z,0.80
2017-11-16T02:16:21.461Z,0.70
2017-11-16T02:18:48.603Z,0.80
2017-11-16T02:21:15.004Z,0.80
2017-11-16T02:23:41.399Z,0.80
2017-11-16T02:26:08.069Z,0.70
2017-11-16T02:28:34.485Z,0.80
2017-11-16T02:31:01.640Z,1.00
2017-11-16T02:33:28.067Z,1.00
2017-11-16T02:35:54.446Z,0.90
2017-11-16T02:38:20.871Z,0.90
2017-11-16T02:40:47.296Z,0.90
2017-11-16T02:43:13.724Z,0.90
2017-11-16T02:45:40.160Z,0.80
2017-11-16T02:48:06.565Z,0.80
2017-11-16T02:50:32.969Z,0.80
2017-11-16T02:53:00.108Z,0.80
2017-11-16T02:55:26.542Z,0.80
2017-11-16T02:57:52.964Z,0.80
2017-11-16T03:00:19.364Z,0.80
2017-11-16T03:02:45.787Z,0.80
2017-11-16T03:05:12.223Z,0.90
2017-11-16T03:07:38.613Z,0.90
2017-11-16T03:10:06.022Z,0.80
2017-11-16T03:12:32.408Z,0.80
2017-11-16T03:14:58.795Z,0.90
2017-11-16T03:17:25.229Z,0.90
2017-11-16T03:19:51.624Z,0.90
2017-11-16T03:22:18.014Z,0.80
2017-11-16T03:24:44.416Z,0.80
2017-11-16T03:27:11.859Z,0.80
2017-11-16T03:29:39.292Z,0.70
2017-11-16T03:32:06.433Z,0.60
2017-11-16T03:34:32.829Z,0.60
2017-11-16T03:36:59.208Z,0.60
2017-11-16T03:39:27.420Z,0.70
2017-11-16T03:41:53.817Z,0.70
2017-11-16T03:44:20.967Z,0.60
2017-11-16T03:46:48.110Z,0.70
2017-11-16T03:49:14.484Z,0.70
2017-11-16T03:51:40.880Z,0.70
2017-11-16T03:54:07.996Z,0.70
2017-11-16T03:56:34.382Z,0.70
2017-11-16T03:59:01.523Z,0.80
2017-11-16T04:01:29.652Z,0.80
2017-11-16T04:03:56.160Z,0.80
2017-11-16T04:06:22.560Z,0.80
2017-11-16T04:08:48.949Z,0.90
2017-11-16T04:11:15.397Z,0.80
2017-11-16T04:13:41.799Z,0.70
2017-11-16T04:16:08.179Z,0.70
2017-11-16T04:18:34.563Z,0.70
2017-11-16T04:21:00.986Z,0.80
2017-11-16T04:23:27.387Z,0.80
2017-11-16T04:25:54.495Z,0.70
2017-11-16T04:28:20.864Z,0.70
2017-11-16T04:30:48.260Z,0.80
2017-11-16T04:33:14.659Z,0.90
2017-11-16T04:35:41.027Z,0.80
2017-11-16T04:38:07.475Z,0.80
2017-11-16T04:40:33.836Z,1.00
2017-11-16T04:43:00.207Z,1.00
2017-11-16T04:45:27.314Z,0.90
2017-11-16T04:47:53.743Z,0.90
2017-11-16T04:50:20.112Z,0.90
2017-11-16T04:52:46.513Z,0.80
2017-11-16T04:55:12.893Z,0.80
2017-11-16T04:57:40.017Z,0.70
2017-11-16T05:00:06.408Z,0.70
2017-11-16T05:02:32.775Z,0.70
2017-11-16T05:04:59.145Z,0.60
2017-11-16T05:07:25.512Z,0.60
2017-11-16T05:09:51.872Z,0.60
2017-11-16T05:12:19.037Z,0.70
2017-11-16T05:14:45.423Z,0.60
2017-11-16T05:17:11.800Z,0.70
2017-11-16T05:19:38.189Z,0.60
2017-11-16T05:22:05.339Z,0.40
2017-11-16T05:24:31.716Z,0.40
2017-11-16T05:26:58.087Z,0.50
2017-11-16T05:29:24.468Z,0.60
2017-11-16T05:31:50.871Z,0.60
2017-11-16T05:34:17.221Z,0.50
2017-11-16T05:36:43.640Z,0.60
2017-11-16T05:39:10.032Z,0.70
2017-11-16T05:41:37.144Z,0.60
2017-11-16T05:44:03.537Z,0.60
2017-11-16T05:46:29.928Z,0.50
2017-11-16T05:48:56.299Z,0.40
2017-11-16T05:51:22.657Z,0.40
2017-11-16T05:53:49.026Z,0.30
2017-11-16T05:56:15.416Z,0.40
2017-11-16T05:58:41.836Z,0.50
2017-11-16T06:01:08.253Z,0.50
2017-11-16T06:03:34.622Z,0.60
2017-11-16T06:06:01.413Z,0.60
2017-11-16T06:08:28.534Z,0.50
2017-11-16T06:10:54.900Z,0.50
2017-11-16T06:13:22.000Z,0.50
2017-11-16T06:15:48.363Z,0.50
2017-11-16T06:18:14.736Z,0.40
2017-11-16T06:20:41.105Z,0.30
2017-11-16T06:23:07.484Z,0.40
2017-11-16T06:25:33.855Z,0.40
2017-11-16T06:28:00.279Z,0.30
2017-11-16T06:30:27.369Z,0.20
2017-11-16T06:32:54.499Z,0.20
2017-11-16T06:35:20.914Z,0.20
2017-11-16T06:37:48.036Z,0.40
2017-11-16T06:40:14.464Z,0.40
2017-11-16T06:42:41.593Z,0.50
2017-11-16T06:45:07.973Z,0.50
2017-11-16T06:47:34.336Z,0.50
2017-11-16T06:50:00.703Z,0.60
2017-11-16T06:52:27.804Z,0.50
2017-11-16T06:54:54.185Z,0.50
2017-11-16T06:57:21.283Z,0.60
2017-11-16T06:59:48.444Z,0.60
2017-11-16T07:02:14.824Z,0.40
2017-11-16T07:04:41.911Z,0.20
2017-11-16T07:07:09.306Z,0.20
2017-11-16T07:09:35.699Z,0.30
2017-11-16T07:12:02.079Z,0.30
2017-11-16T07:14:28.455Z,0.30
2017-11-16T07:16:54.822Z,0.20
2017-11-16T07:19:21.192Z,0.20
2017-11-16T07:21:48.361Z,0.30
2017-11-16T07:24:14.716Z,0.30
2017-11-16T07:26:41.076Z,0.30
2017-11-16T07:29:07.444Z,0.40
2017-11-16T07:31:34.548Z,0.40
2017-11-16T07:34:00.929Z,0.40
2017-11-16T07:36:28.084Z,0.40
2017-11-16T07:38:54.473Z,0.30
2017-11-16T07:41:20.914Z,0.40
2017-11-16T07:43:47.292Z,0.40
2017-11-16T07:46:13.718Z,0.40
2017-11-16T07:48:40.132Z,0.40
2017-11-16T07:51:07.316Z,0.50
2017-11-16T07:53:33.728Z,0.50
2017-11-16T07:56:00.880Z,0.50
2017-11-16T07:58:27.977Z,0.70
2017-11-16T08:00:54.347Z,0.70
2017-11-16T08:03:21.457Z,0.50
2017-11-16T08:05:47.812Z,0.50
2017-11-16T08:08:14.206Z,0.50
2017-11-16T08:10:40.593Z,0.50
2017-11-16T08:13:07.701Z,0.50
2017-11-16T08:15:34.052Z,0.50
2017-11-16T08:18:00.417Z,0.60
2017-11-16T08:20:28.437Z,0.80
2017-11-16T08:22:54.808Z,0.70
2017-11-16T08:25:21.172Z,0.70
2017-11-16T08:27:47.549Z,0.80
2017-11-16T08:30:13.924Z,0.70
2017-11-16T08:32:41.026Z,0.70
2017-11-16T08:35:08.417Z,0.70
2017-11-16T08:37:35.551Z,1.00
2017-11-16T08:40:01.917Z,1.00
2017-11-16T08:42:28.324Z,1.00
2017-11-16T08:44:54.744Z,1.10
2017-11-16T08:47:21.520Z,1.20
2017-11-16T08:49:48.676Z,1.30
2017-11-16T08:52:15.107Z,1.30
2017-11-16T08:54:42.257Z,1.50
2017-11-16T08:57:09.407Z,1.50
2017-11-16T08:59:36.556Z,1.60
2017-11-16T09:02:04.018Z,1.70
2017-11-16T09:04:31.187Z,1.60
2017-11-16T09:06:57.596Z,1.60
2017-11-16T09:09:24.736Z,1.70
2017-11-16T09:11:51.901Z,1.80
2017-11-16T09:14:19.072Z,1.90
2017-11-16T09:16:45.597Z,1.80
2017-11-16T09:19:12.012Z,1.80
2017-11-16T09:21:40.204Z,1.80
2017-11-16T09:24:06.610Z,1.80
2017-11-16T09:26:33.005Z,1.90
2017-11-16T09:29:00.433Z,1.80
2017-11-16T09:31:26.829Z,1.70
2017-11-16T09:33:53.239Z,1.70
2017-11-16T09:36:19.641Z,1.80
2017-11-16T09:38:46.052Z,1.90
2017-11-16T09:41:13.204Z,1.90
2017-11-16T09:43:40.319Z,2.00
2017-11-16T09:46:06.691Z,1.90
2017-11-16T09:48:33.801Z,1.80
2017-11-16T09:51:00.197Z,1.80
2017-11-16T09:53:26.568Z,1.90
2017-11-16T09:55:53.060Z,1.80
2017-11-16T09:58:19.457Z,1.80
2017-11-16T10:00:46.625Z,1.90
2017-11-16T10:03:13.737Z,1.80
2017-11-16T10:05:40.100Z,1.80
2017-11-16T10:08:07.204Z,1.80
2017-11-16T10:10:33.622Z,1.80
2017-11-16T10:12:59.986Z,1.80
2017-11-16T10:15:26.363Z,1.80
2017-11-16T10:17:52.728Z,1.90
2017-11-16T10:20:19.131Z,1.90
2017-11-16T10:22:45.557Z,1.70
2017-11-16T10:25:12.668Z,1.30
2017-11-16T10:27:39.030Z,1.40
2017-11-16T10:30:06.167Z,1.50
2017-11-16T10:32:33.300Z,1.40
2017-11-16T10:34:59.681Z,1.40
2017-11-16T10:37:26.802Z,1.20
2017-11-16T10:39:53.932Z,1.30
2017-11-16T10:42:20.373Z,1.30
2017-11-16T10:44:46.799Z,1.20
2017-11-16T10:47:13.231Z,1.30
2017-11-16T10:49:39.638Z,1.50
2017-11-16T10:52:06.046Z,1.40
2017-11-16T10:54:32.425Z,1.30
2017-11-16T10:56:58.810Z,1.30
2017-11-16T10:59:25.195Z,1.30
2017-11-16T11:01:51.568Z,1.50
2017-11-16T11:04:18.659Z,1.80
2017-11-16T11:06:45.021Z,1.70
2017-11-16T11:09:11.386Z,1.80
2017-11-16T11:11:37.780Z,1.70
2017-11-16T11:14:04.211Z,1.70
2017-11-16T11:16:30.593Z,1.90
2017-11-16T11:18:56.972Z,1.80
2017-11-16T11:21:23.372Z,1.90
2017-11-16T11:23:49.756Z,2.00
2017-11-16T11:26:16.135Z,2.00
2017-11-16T11:28:42.500Z,2.00
2017-11-16T11:31:08.878Z,2.10
2017-11-16T11:33:36.000Z,2.10
2017-11-16T11:36:02.369Z,2.10
2017-11-16T11:38:28.744Z,2.00
2017-11-16T11:40:55.111Z,1.80
2017-11-16T11:43:22.212Z,1.70
2017-11-16T11:45:49.584Z,1.70
2017-11-16T11:48:15.963Z,1.70
2017-11-16T11:50:43.080Z,1.70
2017-11-16T11:53:09.459Z,1.70
2017-11-16T11:55:35.826Z,1.90
2017-11-16T11:58:02.213Z,2.00
2017-11-16T12:00:29.341Z,2.20
2017-11-16T12:02:55.705Z,2.20
2017-11-16T12:05:22.110Z,2.20
2017-11-16T12:07:49.221Z,2.20
2017-11-16T12:10:16.606Z,2.20
2017-11-16T12:12:42.980Z,2.10
2017-11-16T12:15:09.353Z,2.00
2017-11-16T12:17:35.732Z,1.80
2017-11-16T12:20:02.885Z,1.50
2017-11-16T12:22:30.013Z,1.40
2017-11-16T12:24:56.372Z,1.40
2017-11-16T12:27:22.769Z,1.30
2017-11-16T12:29:49.213Z,1.30
2017-11-16T12:32:15.616Z,1.40
2017-11-16T12:34:42.033Z,1.40
2017-11-16T12:37:08.436Z,1.40
2017-11-16T12:39:34.879Z,1.40
2017-11-16T12:42:01.273Z,1.40
2017-11-16T12:44:27.672Z,1.40
2017-11-16T12:46:54.103Z,1.50
2017-11-16T12:49:20.523Z,1.60
2017-11-16T12:51:46.932Z,1.40
2017-11-16T12:54:14.068Z,1.30
2017-11-16T12:56:42.045Z,1.10
2017-11-16T12:59:09.159Z,1.20
2017-11-16T13:01:35.544Z,1.10
2017-11-16T13:04:01.945Z,1.10
2017-11-16T13:06:28.354Z,1.10
2017-11-16T13:08:54.732Z,1.20
2017-11-16T13:11:21.856Z,1.00
2017-11-16T13:13:48.212Z,1.00
2017-11-16T13:16:15.320Z,1.10
2017-11-16T13:18:41.720Z,1.00
2017-11-16T13:21:08.092Z,1.20
2017-11-16T13:23:34.479Z,1.30
2017-11-16T13:26:00.868Z,1.20
2017-11-16T13:28:27.280Z,1.30
2017-11-16T13:30:53.708Z,1.30
2017-11-16T13:33:20.072Z,1.40
2017-11-16T13:35:46.436Z,1.60
2017-11-16T13:38:12.813Z,1.60
2017-11-16T13:40:39.189Z,1.70
2017-11-16T13:43:06.301Z,1.80
2017-11-16T13:45:32.665Z,1.80
2017-11-16T13:47:59.786Z,1.60
2017-11-16T13:50:26.144Z,1.50
2017-11-16T13:52:53.257Z,1.30
2017-11-16T13:55:19.624Z,1.30
2017-11-16T13:57:46.056Z,1.30
2017-11-16T14:00:12.420Z,1.30
2017-11-16T14:02:38.780Z,1.30
2017-11-16T14:05:05.144Z,1.40
2017-11-16T14:07:31.520Z,1.50
2017-11-16T14:09:57.881Z,1.60
2017-11-16T14:12:24.249Z,1.60
2017-11-16T14:14:51.644Z,1.40
2017-11-16T14:17:18.045Z,1.40
2017-11-16T14:19:45.157Z,1.30
2017-11-16T14:22:11.533Z,1.30
2017-11-16T14:24:38.649Z,1.30
2017-11-16T14:27:05.000Z,1.30
2017-11-16T14:29:31.365Z,1.10
2017-11-16T14:31:57.757Z,1.10
2017-11-16T14:34:24.157Z,1.00
2017-11-16T14:36:50.557Z,0.90
2017-11-16T14:39:16.924Z,0.70
2017-11-16T14:41:43.292Z,0.70
2017-11-16T14:44:09.676Z,0.70
2017-11-16T14:46:36.068Z,0.80
2017-11-16T14:49:03.205Z,0.50
2017-11-16T14:51:30.592Z,0.50
2017-11-16T14:53:57.698Z,0.50
2017-11-16T14:56:24.068Z,0.50
2017-11-16T14:58:51.192Z,0.60
2017-11-16T15:01:17.577Z,0.60
2017-11-16T15:03:43.968Z,0.90
2017-11-16T15:06:10.325Z,0.90
2017-11-16T15:08:36.706Z,0.80
2017-11-16T15:11:03.074Z,0.70
2017-11-16T15:13:31.230Z,0.60
2017-11-16T15:15:57.624Z,0.60
2017-11-16T15:18:23.999Z,0.60
2017-11-16T15:20:50.380Z,0.50
2017-11-16T15:23:16.752Z,0.40
2017-11-16T15:25:43.109Z,0.40
2017-11-16T15:28:10.233Z,0.40
2017-11-16T15:30:36.649Z,0.40
2017-11-16T15:33:03.058Z,0.40
2017-11-16T15:35:29.437Z,0.50
2017-11-16T15:37:55.823Z,0.50
2017-11-16T15:40:22.207Z,0.50
2017-11-16T15:42:48.572Z,0.60
2017-11-16T15:45:16.799Z,0.50
2017-11-16T15:47:43.181Z,0.40
2017-11-16T15:50:10.316Z,0.40
2017-11-16T15:52:37.438Z,0.30
2017-11-16T15:55:04.568Z,0.30
2017-11-16T15:57:30.924Z,0.30
2017-11-16T15:59:57.284Z,0.30
2017-11-16T16:02:24.400Z,0.30
2017-11-16T16:04:50.777Z,0.20
2017-11-16T16:07:17.906Z,0.20
2017-11-16T16:09:45.310Z,0.20
2017-11-16T16:12:11.697Z,0.30
2017-11-16T16:14:38.406Z,0.50
2017-11-16T16:17:04.828Z,0.60
2017-11-16T16:19:31.201Z,0.70
2017-11-16T16:21:58.592Z,0.60
2017-11-16T16:24:25.000Z,0.80
2017-11-16T16:26:51.369Z,0.70
2017-11-16T16:29:17.732Z,0.50
2017-11-16T16:31:44.088Z,0.60
2017-11-16T16:34:10.477Z,0.60
2017-11-16T16:36:36.847Z,0.60
2017-11-16T16:39:03.274Z,0.70
2017-11-16T16:41:29.631Z,0.70
2017-11-16T16:43:56.743Z,0.70
2017-11-16T16:46:23.861Z,0.70
2017-11-16T16:48:50.233Z,0.70
2017-11-16T16:51:16.611Z,0.70
2017-11-16T16:53:43.716Z,0.70
2017-11-16T16:56:10.082Z,0.70
2017-11-16T16:58:37.192Z,0.80
2017-11-16T17:01:03.576Z,0.80
2017-11-16T17:03:30.689Z,0.90
2017-11-16T17:05:57.061Z,0.90
2017-11-16T17:08:25.188Z,0.80
2017-11-16T17:10:51.549Z,0.80
2017-11-16T17:13:18.647Z,1.00
2017-11-16T17:15:45.031Z,1.00
2017-11-16T17:18:12.152Z,1.10
2017-11-16T17:20:38.545Z,1.10
2017-11-16T17:23:04.936Z,1.10
2017-11-16T17:25:31.296Z,1.10
2017-11-16T17:27:58.392Z,1.10
2017-11-16T17:30:24.745Z,1.10
2017-11-16T17:32:51.152Z,1.10
2017-11-16T17:35:17.528Z,1.20
2017-11-16T17:37:44.645Z,1.40
2017-11-16T17:40:11.029Z,1.40
2017-11-16T17:42:37.399Z,1.50
2017-11-16T17:45:03.817Z,1.50
2017-11-16T17:47:30.181Z,1.40
2017-11-16T17:49:58.537Z,1.40
2017-11-16T17:52:24.921Z,1.50
2017-11-16T17:54:52.029Z,1.60
2017-11-16T17:57:20.143Z,1.50
2017-11-16T17:59:47.267Z,1.50
2017-11-16T18:02:13.659Z,1.50
2017-11-16T18:04:40.026Z,1.40
2017-11-16T18:07:06.387Z,1.50
2017-11-16T18:09:32.746Z,1.40
2017-11-16T18:11:59.135Z,1.40
2017-11-16T18:14:25.577Z,1.50
2017-11-16T18:16:51.941Z,1.50
2017-11-16T18:19:19.053Z,1.50
2017-11-16T18:21:45.438Z,1.50
2017-11-16T18:24:11.817Z,1.60
2017-11-16T18:26:38.229Z,1.50
2017-11-16T18:29:04.600Z,1.50
2017-11-16T18:31:30.984Z,1.40
2017-11-16T18:33:57.352Z,1.30
2017-11-16T18:36:23.735Z,1.30
2017-11-16T18:38:50.100Z,1.40
2017-11-16T18:41:16.468Z,1.40
2017-11-16T18:43:43.584Z,1.30
2017-11-16T18:46:09.949Z,1.30
2017-11-16T18:48:38.043Z,1.40
2017-11-16T18:51:04.415Z,1.40
2017-11-16T18:53:30.775Z,1.40
2017-11-16T18:55:57.149Z,1.40
2017-11-16T18:58:24.450Z,1.50
2017-11-16T19:00:50.964Z,1.50
2017-11-16T19:03:17.348Z,1.50
2017-11-16T19:05:44.483Z,1.40
2017-11-16T19:08:10.967Z,1.30
2017-11-16T19:10:37.344Z,1.30
2017-11-16T19:13:03.974Z,1.20
2017-11-16T19:15:30.360Z,1.20
2017-11-16T19:17:58.453Z,1.10
2017-11-16T19:20:24.850Z,1.20
2017-11-16T19:22:52.260Z,1.30
2017-11-16T19:25:18.620Z,1.20
2017-11-16T19:27:45.183Z,1.30
2017-11-16T19:30:12.470Z,1.30
2017-11-16T19:32:38.938Z,1.30
2017-11-16T19:35:05.660Z,1.20
2017-11-16T19:37:32.181Z,1.20
2017-11-16T19:39:58.540Z,1.10
2017-11-16T19:42:24.904Z,0.90
2017-11-16T19:44:53.223Z,0.90
2017-11-16T19:47:19.731Z,0.90
2017-11-16T19:49:46.157Z,1.10
2017-11-16T19:52:12.743Z,1.10
2017-11-16T19:54:39.289Z,1.20
2017-11-16T19:57:05.664Z,1.20
2017-11-16T19:59:33.125Z,1.30
2017-11-16T20:01:59.497Z,1.30
2017-11-16T20:04:26.010Z,1.40
2017-11-16T20:06:52.566Z,1.30
2017-11-16T20:09:19.187Z,1.30
2017-11-16T20:11:46.534Z,1.30
2017-11-16T20:14:13.076Z,1.20
2017-11-16T20:16:39.447Z,1.40
2017-11-16T20:19:05.804Z,1.30
2017-11-16T20:21:32.913Z,1.30
2017-11-16T20:23:59.268Z,1.20
2017-11-16T20:26:25.636Z,1.30
2017-11-16T20:28:53.225Z,1.30
2017-11-16T20:31:19.619Z,1.20
2017-11-16T20:33:46.762Z,1.00
2017-11-16T20:36:14.007Z,1.00
2017-11-16T20:38:47.253Z,1.00
2017-11-16T20:41:30.673Z,1.20
2017-11-16T20:44:08.852Z,1.20
2017-11-16T20:46:42.125Z,1.20
2017-11-16T20:49:14.720Z,1.20
2017-11-16T20:51:56.023Z,1.20
2017-11-16T20:54:30.138Z,1.30
2017-11-16T20:56:57.279Z,1.40
2017-11-16T20:59:25.436Z,1.50
2017-11-16T21:01:51.804Z,1.50
2017-11-16T21:04:18.208Z,1.60
2017-11-16T21:06:44.571Z,1.50
2017-11-16T21:09:10.972Z,1.40
2017-11-16T21:11:37.378Z,1.50
2017-11-16T21:14:03.749Z,1.60
2017-11-16T21:16:30.884Z,1.60
2017-11-16T21:18:57.252Z,1.60
2017-11-16T21:21:23.630Z,1.60
2017-11-16T21:23:49.979Z,1.60
2017-11-16T21:26:16.339Z,1.60
2017-11-16T21:28:43.440Z,1.40
2017-11-16T21:31:09.806Z,1.30
2017-11-16T21:33:36.920Z,1.20
2017-11-16T21:36:03.305Z,1.10
2017-11-16T21:38:30.416Z,1.20
2017-11-16T21:40:56.776Z,1.10
2017-11-16T21:43:23.931Z,1.30
2017-11-16T21:45:51.062Z,1.30
2017-11-16T21:48:18.350Z,1.30
2017-11-16T21:50:44.748Z,1.20
2017-11-16T21:53:11.124Z,1.10
2017-11-16T21:55:37.491Z,0.90
2017-11-16T21:58:03.873Z,1.00
2017-11-16T22:00:30.984Z,1.10
2017-11-16T22:02:57.350Z,1.00
2017-11-16T22:05:24.493Z,0.90
2017-11-16T22:07:51.600Z,1.00
2017-11-16T22:10:17.995Z,1.00
2017-11-16T22:12:44.364Z,1.00
2017-11-16T22:15:10.736Z,1.00
2017-11-16T22:17:37.843Z,1.00
2017-11-16T22:20:04.204Z,1.00
2017-11-16T22:22:30.572Z,1.10
2017-11-16T22:24:56.941Z,1.10
2017-11-16T22:27:23.312Z,1.10
2017-11-16T22:29:51.421Z,1.00
2017-11-16T22:32:17.836Z,1.00
2017-11-16T22:34:44.951Z,1.00
2017-11-16T22:37:11.307Z,1.00
2017-11-16T22:39:38.472Z,1.00
2017-11-16T22:42:05.587Z,1.00
2017-11-16T22:44:31.952Z,1.00
2017-11-16T22:46:59.057Z,1.00
2017-11-16T22:49:25.420Z,1.00
2017-11-16T22:51:53.544Z,1.00
2017-11-16T22:54:19.907Z,0.90
2017-11-16T22:56:46.648Z,0.90
2017-11-16T22:59:13.019Z,1.00
2017-11-16T23:01:40.436Z,1.00
2017-11-16T23:04:06.825Z,1.10
2017-11-16T23:06:33.235Z,1.20
2017-11-16T23:09:00.348Z,1.30
2017-11-16T23:11:26.724Z,1.30
2017-11-16T23:13:53.084Z,1.30
2017-11-16T23:16:19.488Z,1.20
2017-11-16T23:18:45.952Z,1.20
2017-11-16T23:21:12.322Z,1.30
2017-11-16T23:23:38.700Z,1.30
2017-11-16T23:26:05.068Z,1.20
2017-11-16T23:28:31.607Z,1.10
2017-11-16T23:30:57.988Z,1.20
2017-11-16T23:33:25.128Z,1.20
2017-11-16T23:35:52.285Z,1.20
2017-11-16T23:38:19.396Z,1.10
2017-11-16T23:40:45.856Z,1.00
2017-11-16T23:43:12.236Z,0.90
2017-11-16T23:45:38.609Z,1.00
2017-11-16T23:48:04.976Z,0.80
2017-11-16T23:50:31.354Z,0.90
2017-11-16T23:52:57.715Z,0.90
2017-11-16T23:55:24.086Z,0.90
2017-11-16T23:57:51.459Z,0.80
